• Join FlightAware (Why Join?)
  • Login
  • US Flag 
10:45PM EDT


 

Airport Tracker/Info


-or-


 

Live Flight TrackerFlight Track Log ✈ N2CF ✈ 03-May-2013 ✈ KUGN - KGLR

Flight Track Log - Related Links

Times and Time Zones

All times are in EDT time to prevent confusion due to time zone crossing. See the N2CF flight status page for this flight to view local times or setup timezone preferences in your user account.

Time Position Orientation Groundspeed Altitude Reporting Facility
EDT Latitude Longitude Course Direction KTS MPH feet Rate Location/Type
12:14PM 42.4333 -87.8333 66° East 115 132 1,900  Level Chicago TRACON
12:15PM 42.4500 -87.7833 66° East 134 154 2,700 780 Climbing Chicago TRACON
12:17PM 42.4958 -87.7828 North 159 183 3,800 900 Climbing Chicago Center
12:18PM 42.5456 -87.7939 351° North 156 180 4,900 960 Climbing Chicago Center
12:19PM 42.5908 -87.7975 357° North 162 186 5,800 1,020 Climbing Chicago Center
12:20PM 42.6333 -87.8064 351° North 156 180 7,000 1,020 Climbing Chicago Center
12:21PM 42.6736 -87.8142 352° North 148 170 7,900 900 Climbing Chicago Center
12:22PM 42.7119 -87.8031 12° North 147 169 8,900 900 Climbing Chicago Center
12:23PM 42.7383 -87.7683 44° Northeast 133 153 9,800 780 Climbing Chicago Center
12:24PM 42.7669 -87.7306 44° Northeast 140 161 10,600 840 Climbing Chicago Center
12:25PM 42.8003 -87.6836 46° Northeast 148 170 11,600 900 Climbing Chicago Center
12:26PM 42.8319 -87.6428 43° Northeast 154 177 12,500 840 Climbing Chicago Center
12:27PM 42.8622 -87.6039 43° Northeast 153 176 13,400 840 Climbing Chicago Center
12:28PM 42.8928 -87.5642 44° Northeast 151 174 14,300 720 Climbing Chicago Center
12:29PM 42.9239 -87.5236 44° Northeast 154 177 15,000 300 Climbing Chicago Center
12:30PM 42.9553 -87.4731 50° Northeast 169 194 15,000  Level Chicago Center
12:31PM 42.9975 -87.4069 49° Northeast 191 220 15,100  Climbing Chicago Center
12:32PM 43.0339 -87.3625 42° Northeast 205 236 15,100  Level Chicago Center
12:33PM 43.0842 -87.2964 44° Northeast 209 241 15,100  Level Chicago Center
12:34PM 43.1275 -87.2433 42° Northeast 209 241 15,100  Level Chicago Center
12:35PM 43.1717 -87.1883 42° Northeast 212 244 15,100  Level Chicago Center
12:36PM 43.2139 -87.1344 43° Northeast 210 242 15,100  Level Chicago Center
12:37PM 43.2567 -87.0794 43° Northeast 210 242 15,100  Level Chicago Center
12:38PM 43.2986 -87.0231 44° Northeast 211 243 15,100  Level Chicago Center
12:39PM 43.3411 -86.9681 43° Northeast 209 241 15,100  Level Chicago Center
12:40PM 43.3931 -86.9022 43° Northeast 210 242 15,100  Level Chicago Center
12:41PM 43.4358 -86.8472 43° Northeast 212 244 15,100  Level Chicago Center
12:43PM 43.4789 -86.7942 42° Northeast 208 239 15,100  Level Chicago Center
12:44PM 43.5192 -86.7389 45° Northeast 204 235 15,100  Level Chicago Center
12:45PM 43.5597 -86.6833 45° Northeast 205 236 15,100  Level Chicago Center
12:46PM 43.6014 -86.6331 41° Northeast 199 229 15,100  Level Chicago Center
12:46PM 43.6167 -86.6117 45° Northeast 199 229 15,100  Level Minneapolis Center
12:47PM 43.6564 -86.5575 45° Northeast 201 231 15,100  Level Minneapolis Center
12:48PM 43.6981 -86.5044 43° Northeast 203 234 15,100  Level Minneapolis Center
12:49PM 43.7383 -86.4481 45° Northeast 205 236 15,100  Level Minneapolis Center
12:50PM 43.7872 -86.3811 45° Northeast 206 237 15,100  Level Minneapolis Center
12:51PM 43.8289 -86.3258 44° Northeast 208 239 15,100  Level Minneapolis Center
12:52PM 43.8703 -86.2717 43° Northeast 206 237 15,100  Level Minneapolis Center
12:53PM 43.9111 -86.2175 44° Northeast 204 235 15,100  Level Minneapolis Center
12:54PM 43.9519 -86.1628 44° Northeast 204 235 15,100  Level Minneapolis Center
12:55PM 43.9939 -86.1056 44° Northeast 209 241 15,100  Level Minneapolis Center
12:56PM 44.0364 -86.0511 43° Northeast 209 241 15,100  Level Minneapolis Center
12:57PM 44.0792 -85.9947 43° Northeast 212 244 15,100  Level Minneapolis Center
12:58PM 44.1233 -85.9314 46° Northeast 210 242 15,100  Level Minneapolis Center
12:59PM 44.1658 -85.8764 43° Northeast 210 242 15,100  Level Minneapolis Center
01:00PM 44.2067 -85.8203 45° Northeast 208 239 15,100  Level Minneapolis Center
01:01PM 44.2558 -85.7544 44° Northeast 206 237 15,100 -300 Level Minneapolis Center
01:02PM 44.2978 -85.6964 45° Northeast 211 243 14,600 -660 Descending Minneapolis Center
01:03PM 44.3433 -85.6339 44° Northeast 224 258 13,800 -840 Descending Minneapolis Center
01:04PM 44.3892 -85.5719 44° Northeast 229 264 12,900 -1,020 Descending Minneapolis Center
01:05PM 44.4358 -85.5111 43° Northeast 230 265 11,800 -1,020 Descending Minneapolis Center
01:07PM 44.4797 -85.4489 45° Northeast 228 262 10,900 -1,020 Descending Minneapolis Center
01:08PM 44.5336 -85.3769 44° Northeast 225 259 9,800 -960 Descending Minneapolis Center
01:09PM 44.5764 -85.3169 45° Northeast 221 254 9,000 -840 Descending Minneapolis Center
01:10PM 44.6197 -85.2592 43° Northeast 218 251 8,100 -840 Descending Minneapolis Center
01:11PM 44.6614 -85.1975 46° Northeast 218 251 7,400 -780 Descending Minneapolis Center
01:12PM 44.7022 -85.1392 45° Northeast 215 247 6,600 -780 Descending Minneapolis Center
01:13PM 44.7431 -85.0817 45° Northeast 211 243 5,900 -600 Descending Minneapolis Center
01:14PM 44.7917 -85.0169 43° Northeast 207 238 5,400 -660 Descending Minneapolis Center
01:15PM 44.8306 -84.9664 43° Northeast 200 230 4,600 -780 Descending Minneapolis Center
01:17PM 44.8789 -84.8589 55° Northeast  Level FlightAware Approximate
01:24PM 45.0000 -84.7000 North  Level FlightAware Approximate
01:25PM 45.0130 -84.7035 North  Level Estimated
01:26PM 45.0130 -84.7035 North  Level Estimated
01:27PM 45.0130 -84.7035 North  Level Estimated